Time;durP1;ratioP1;P1;durP2;ratioP2;P2;SDS_P1;SDS_P2;PMS_P1;PMS_P2;Temp;Humidity;BMP_temperature;BMP_pressure;BME280_temperature;BME280_humidity;BME280_pressure;Samples;Min_cycle;Max_cycle;Signal;HPM_P1;HPM_P2
2021/05/10 00:01:29;;;;;;;453.58;383.55;;;;;;;;;;5023484;28;20312;-81
2021/05/10 00:03:55;;;;;;;456.00;385.83;;;;;;;;;;5028036;28;20033;-80
2021/05/10 00:06:21;;;;;;;457.45;388.20;;;;;;;;;;5049942;28;20549;-80
2021/05/10 00:08:48;;;;;;;455.48;388.02;;;;;;;;;;5031906;28;20031;-80
2021/05/10 00:11:15;;;;;;;458.98;392.73;;;;;;;;;;5048038;28;20115;-80
2021/05/10 00:13:45;;;;;;;458.00;393.98;;;;;;;;;;5047861;28;20025;-80
2021/05/10 00:16:12;;;;;;;458.15;394.35;;;;;;;;;;5029787;28;20032;-80
2021/05/10 00:18:38;;;;;;;455.15;393.48;;;;;;;;;;5047122;28;20056;-78
2021/05/10 00:21:04;;;;;;;458.42;394.80;;;;;;;;;;5028715;28;20033;-79
2021/05/10 00:23:30;;;;;;;457.33;395.65;;;;;;;;;;5051043;28;20430;-79
2021/05/10 00:25:56;;;;;;;461.55;397.25;;;;;;;;;;5054661;28;20037;-80
2021/05/10 00:28:22;;;;;;;456.05;393.58;;;;;;;;;;5045943;28;20056;-79
2021/05/10 00:30:48;;;;;;;456.98;393.05;;;;;;;;;;5025583;28;20037;-80
2021/05/10 00:33:14;;;;;;;457.15;394.35;;;;;;;;;;5024440;28;20029;-80
2021/05/10 00:35:40;;;;;;;457.67;393.63;;;;;;;;;;5046750;28;20044;-80
2021/05/10 00:38:06;;;;;;;455.23;389.58;;;;;;;;;;5027502;28;20071;-80
2021/05/10 00:40:33;;;;;;;459.88;392.05;;;;;;;;;;5045538;28;20496;-78
2021/05/10 00:43:00;;;;;;;460.20;393.80;;;;;;;;;;5042262;28;20144;-80
2021/05/10 00:45:26;;;;;;;459.88;392.73;;;;;;;;;;5043181;28;20037;-80
2021/05/10 00:47:52;;;;;;;458.77;387.42;;;;;;;;;;5029503;28;20511;-80
2021/05/10 00:50:19;;;;;;;466.52;393.40;;;;;;;;;;5034375;28;20034;-79
2021/05/10 00:52:45;;;;;;;458.10;387.00;;;;;;;;;;5038193;28;20116;-78
2021/05/10 00:55:12;;;;;;;456.50;385.67;;;;;;;;;;5024790;28;20476;-79
2021/05/10 00:57:41;;;;;;;464.60;389.75;;;;;;;;;;5032944;28;20020;-79
2021/05/10 01:00:08;;;;;;;460.13;390.55;;;;;;;;;;5042098;28;20035;-79
2021/05/10 01:02:34;;;;;;;460.02;387.67;;;;;;;;;;5029162;28;20033;-80
2021/05/10 01:05:00;;;;;;;455.45;385.02;;;;;;;;;;5029577;28;20033;-79
2021/05/10 01:07:26;;;;;;;459.30;385.85;;;;;;;;;;5028992;28;20472;-80
2021/05/10 01:09:52;;;;;;;460.55;389.13;;;;;;;;;;5046416;28;20021;-80
2021/05/10 01:12:19;;;;;;;462.15;388.27;;;;;;;;;;5028886;28;20028;-79
2021/05/10 01:14:45;;;;;;;457.58;387.83;;;;;;;;;;5042177;28;20106;-80
2021/05/10 01:17:11;;;;;;;458.60;382.48;;;;;;;;;;5027745;28;20106;-79
2021/05/10 01:19:37;;;;;;;456.00;384.42;;;;;;;;;;5029843;28;20535;-79
2021/05/10 01:22:04;;;;;;;458.48;383.70;;;;;;;;;;5045579;28;20029;-80
2021/05/10 01:24:30;;;;;;;462.17;387.38;;;;;;;;;;5016573;28;20065;-78
2021/05/10 01:26:56;;;;;;;462.13;382.65;;;;;;;;;;5035241;28;20418;-78
2021/05/10 01:29:22;;;;;;;458.77;383.65;;;;;;;;;;5025385;28;20269;-80
2021/05/10 01:31:48;;;;;;;457.38;382.90;;;;;;;;;;5048284;28;20025;-81
2021/05/10 01:34:15;;;;;;;461.42;386.25;;;;;;;;;;5045499;28;20021;-79
2021/05/10 01:36:40;;;;;;;461.88;386.73;;;;;;;;;;5021170;28;20500;-78
2021/05/10 01:39:07;;;;;;;459.75;385.15;;;;;;;;;;5042354;28;20029;-78
2021/05/10 01:41:33;;;;;;;466.83;388.02;;;;;;;;;;5032772;28;20064;-79
2021/05/10 01:43:59;;;;;;;466.98;391.27;;;;;;;;;;5032955;28;20036;-80
2021/05/10 01:46:25;;;;;;;462.50;390.40;;;;;;;;;;5049136;28;20040;-80
2021/05/10 01:48:51;;;;;;;460.02;381.38;;;;;;;;;;5036231;28;20107;-80
2021/05/10 01:51:22;;;;;;;459.55;388.00;;;;;;;;;;5033247;28;20174;-79
2021/05/10 01:53:48;;;;;;;461.48;383.58;;;;;;;;;;5032781;28;20496;-78
2021/05/10 01:56:14;;;;;;;460.95;385.60;;;;;;;;;;5047426;28;20057;-78
2021/05/10 01:58:40;;;;;;;464.63;385.25;;;;;;;;;;5031113;28;20025;-80
2021/05/10 02:01:06;;;;;;;465.92;384.30;;;;;;;;;;5029185;28;20029;-78
2021/05/10 02:03:32;;;;;;;462.67;381.50;;;;;;;;;;5046506;28;20039;-80
2021/05/10 02:05:58;;;;;;;461.02;382.63;;;;;;;;;;5049891;28;20063;-81
2021/05/10 02:08:25;;;;;;;464.92;383.35;;;;;;;;;;5050839;28;20029;-80
2021/05/10 02:10:52;;;;;;;459.23;378.65;;;;;;;;;;5030250;28;20547;-82
2021/05/10 02:13:19;;;;;;;468.35;384.40;;;;;;;;;;5032446;28;20078;-82
2021/05/10 02:15:48;;;;;;;459.30;380.60;;;;;;;;;;5030095;28;20036;-85
2021/05/10 02:18:15;;;;;;;460.40;378.85;;;;;;;;;;5023499;28;20029;-82
2021/05/10 02:20:41;;;;;;;460.08;380.27;;;;;;;;;;5032860;28;20025;-85
2021/05/10 02:23:08;;;;;;;461.15;380.70;;;;;;;;;;5031308;28;20455;-80
2021/05/10 02:25:35;;;;;;;459.70;378.23;;;;;;;;;;5033709;28;20037;-82
2021/05/10 02:28:02;;;;;;;463.58;385.88;;;;;;;;;;5029199;28;20108;-80
2021/05/10 02:30:29;;;;;;;462.45;382.40;;;;;;;;;;5032799;28;20064;-81
2021/05/10 02:32:55;;;;;;;460.20;379.80;;;;;;;;;;5027866;28;20091;-83
2021/05/10 02:35:22;;;;;;;460.45;380.83;;;;;;;;;;5050478;28;20496;-80
2021/05/10 02:37:48;;;;;;;459.95;380.63;;;;;;;;;;5046428;28;21852;-81
2021/05/10 02:40:14;;;;;;;462.15;375.40;;;;;;;;;;5033324;28;20032;-80
2021/05/10 02:42:41;;;;;;;463.90;380.85;;;;;;;;;;5047009;28;20121;-80
2021/05/10 02:45:08;;;;;;;463.42;380.88;;;;;;;;;;5032727;28;20530;-81
2021/05/10 02:47:34;;;;;;;459.10;376.77;;;;;;;;;;5029393;28;20128;-82
2021/05/10 02:50:01;;;;;;;460.88;376.45;;;;;;;;;;5032419;28;20523;-82
2021/05/10 02:52:27;;;;;;;463.20;378.15;;;;;;;;;;5042755;28;20025;-81
2021/05/10 02:54:53;;;;;;;460.33;376.75;;;;;;;;;;5046216;28;20018;-80
2021/05/10 02:57:20;;;;;;;461.48;379.98;;;;;;;;;;5049878;28;20081;-78
2021/05/10 02:59:47;;;;;;;462.08;380.15;;;;;;;;;;5048806;28;20160;-82
2021/05/10 03:02:14;;;;;;;462.35;379.27;;;;;;;;;;5029687;28;20045;-79
2021/05/10 03:04:43;;;;;;;460.30;378.33;;;;;;;;;;5030031;28;20029;-81
2021/05/10 03:07:09;;;;;;;460.98;377.52;;;;;;;;;;5021027;28;20489;-79
2021/05/10 03:09:35;;;;;;;460.58;376.55;;;;;;;;;;5049333;28;20096;-80
2021/05/10 03:12:01;;;;;;;460.70;371.58;;;;;;;;;;5050732;28;20028;-83
2021/05/10 03:14:27;;;;;;;459.92;374.75;;;;;;;;;;5057378;28;20110;-82
2021/05/10 03:16:53;;;;;;;458.80;378.65;;;;;;;;;;5029915;28;20025;-80
2021/05/10 03:19:19;;;;;;;460.65;375.95;;;;;;;;;;5031025;28;20025;-80
2021/05/10 03:21:45;;;;;;;458.60;374.92;;;;;;;;;;5031299;28;20152;-81
2021/05/10 03:24:11;;;;;;;452.85;373.63;;;;;;;;;;5031652;28;20051;-80
2021/05/10 03:26:38;;;;;;;456.25;373.95;;;;;;;;;;5030775;28;20348;-81
2021/05/10 03:29:05;;;;;;;457.77;375.63;;;;;;;;;;5028775;28;20396;-81
2021/05/10 03:31:31;;;;;;;457.50;382.05;;;;;;;;;;5031776;28;20029;-80
2021/05/10 03:33:57;;;;;;;457.02;373.70;;;;;;;;;;5031435;28;20029;-80
2021/05/10 03:36:23;;;;;;;457.65;376.85;;;;;;;;;;5031600;28;20427;-81
2021/05/10 03:38:49;;;;;;;458.42;375.58;;;;;;;;;;5026851;28;20290;-81
2021/05/10 03:41:15;;;;;;;454.50;372.95;;;;;;;;;;5012491;28;20670;-83
2021/05/10 03:43:41;;;;;;;458.75;373.83;;;;;;;;;;5038802;28;20040;-82
2021/05/10 03:46:07;;;;;;;456.27;373.48;;;;;;;;;;5044042;28;20038;-81
2021/05/10 03:48:33;;;;;;;455.48;379.80;;;;;;;;;;5029647;28;20024;-81
2021/05/10 03:50:59;;;;;;;454.40;374.75;;;;;;;;;;5031066;28;20106;-80
2021/05/10 03:53:25;;;;;;;454.05;373.25;;;;;;;;;;5021220;28;20048;-82
2021/05/10 03:55:51;;;;;;;452.77;376.60;;;;;;;;;;5020154;28;20051;-85
2021/05/10 03:58:17;;;;;;;453.23;374.15;;;;;;;;;;5027609;28;20473;-82
2021/05/10 04:00:43;;;;;;;451.70;376.85;;;;;;;;;;5031355;28;20492;-83
2021/05/10 04:03:12;;;;;;;455.52;377.23;;;;;;;;;;5028576;28;20427;-82
2021/05/10 04:11:22;;;;;;;455.23;381.20;;;;;;;;;;5050194;28;20461;-83
2021/05/10 04:13:59;;;;;;;456.55;383.08;;;;;;;;;;5048058;28;20108;-81
2021/05/10 04:16:25;;;;;;;453.98;386.88;;;;;;;;;;5030473;28;20082;-82
2021/05/10 04:18:51;;;;;;;458.17;387.83;;;;;;;;;;5048037;28;20033;-81
2021/05/10 04:21:17;;;;;;;454.50;386.52;;;;;;;;;;5030822;28;20393;-81
2021/05/10 04:23:43;;;;;;;454.25;390.50;;;;;;;;;;5024907;28;20082;-79
2021/05/10 04:26:09;;;;;;;454.67;390.00;;;;;;;;;;5048619;28;20040;-83
2021/05/10 04:28:35;;;;;;;453.23;391.42;;;;;;;;;;5028404;28;20033;-82
2021/05/10 04:31:01;;;;;;;453.60;388.27;;;;;;;;;;5030214;28;20516;-83
2021/05/10 04:33:28;;;;;;;454.92;394.17;;;;;;;;;;5045618;28;20033;-85
2021/05/10 04:35:54;;;;;;;459.25;395.65;;;;;;;;;;5033155;28;20028;-81
2021/05/10 04:38:20;;;;;;;453.95;394.25;;;;;;;;;;5034285;28;20025;-83
2021/05/10 04:40:47;;;;;;;452.92;395.83;;;;;;;;;;5034446;28;20428;-83
2021/05/10 04:43:13;;;;;;;453.90;391.15;;;;;;;;;;5053173;28;20029;-83
2021/05/10 04:45:38;;;;;;;453.52;387.08;;;;;;;;;;5034607;28;20699;-84
2021/05/10 04:48:05;;;;;;;454.73;395.63;;;;;;;;;;5033886;28;20025;-82
2021/05/10 04:50:31;;;;;;;459.35;390.98;;;;;;;;;;5046081;28;20124;-83
2021/05/10 04:52:57;;;;;;;454.80;389.45;;;;;;;;;;5034537;28;20417;-83
2021/05/10 04:55:23;;;;;;;455.75;392.42;;;;;;;;;;5034826;28;20059;-84
2021/05/10 04:57:49;;;;;;;457.25;395.52;;;;;;;;;;5035079;28;20116;-83
2021/05/10 05:00:15;;;;;;;457.45;393.20;;;;;;;;;;5032304;28;20062;-84
2021/05/10 05:02:42;;;;;;;456.13;391.80;;;;;;;;;;5034768;28;20127;-78
2021/05/10 05:05:09;;;;;;;453.38;389.70;;;;;;;;;;5034146;28;20021;-82
2021/05/10 05:07:35;;;;;;;455.23;391.38;;;;;;;;;;5033092;28;20029;-83
2021/05/10 05:10:01;;;;;;;463.83;397.15;;;;;;;;;;5032704;28;20121;-83
2021/05/10 05:12:27;;;;;;;453.83;394.35;;;;;;;;;;5034717;28;20119;-82
2021/05/10 05:14:53;;;;;;;462.40;403.30;;;;;;;;;;5033150;28;20035;-80
2021/05/10 05:17:19;;;;;;;460.08;401.70;;;;;;;;;;5027178;28;20036;-85
2021/05/10 05:19:45;;;;;;;456.73;397.10;;;;;;;;;;5050919;28;20029;-81
2021/05/10 05:22:11;;;;;;;457.02;401.98;;;;;;;;;;5032659;28;20412;-82
2021/05/10 05:24:37;;;;;;;457.15;400.13;;;;;;;;;;5051287;28;20024;-84
2021/05/10 05:27:03;;;;;;;456.55;401.45;;;;;;;;;;5033116;28;20039;-82
2021/05/10 05:29:38;;;;;;;458.00;399.70;;;;;;;;;;5031297;28;20377;-86
2021/05/10 05:32:04;;;;;;;451.42;393.20;;;;;;;;;;5033822;28;20084;-82
2021/05/10 05:34:30;;;;;;;451.20;391.35;;;;;;;;;;5032367;28;20064;-84
2021/05/10 05:36:56;;;;;;;456.80;396.02;;;;;;;;;;5030351;28;20033;-84
2021/05/10 05:39:22;;;;;;;456.83;393.90;;;;;;;;;;5031606;28;20025;-86
2021/05/10 05:41:48;;;;;;;457.35;395.58;;;;;;;;;;5026038;28;20030;-80
2021/05/10 05:44:14;;;;;;;456.90;395.95;;;;;;;;;;5028543;28;20025;-79
2021/05/10 05:46:48;;;;;;;455.95;397.27;;;;;;;;;;5034261;28;20029;-81
2021/05/10 05:49:14;;;;;;;460.98;398.05;;;;;;;;;;5029729;28;20095;-78
2021/05/10 05:51:40;;;;;;;457.00;400.65;;;;;;;;;;5049168;28;20373;-81
2021/05/10 05:54:07;;;;;;;460.25;400.30;;;;;;;;;;5052236;28;20083;-79
2021/05/10 05:56:33;;;;;;;463.00;397.15;;;;;;;;;;5029944;28;20025;-81
2021/05/10 05:58:59;;;;;;;458.00;398.55;;;;;;;;;;5033350;28;20031;-83
2021/05/10 06:01:25;;;;;;;457.40;395.50;;;;;;;;;;5026407;28;20029;-82
2021/05/10 06:03:53;;;;;;;456.83;397.98;;;;;;;;;;5037965;28;20056;-82
2021/05/10 06:06:19;;;;;;;457.25;399.08;;;;;;;;;;5051630;28;20096;-85
2021/05/10 06:08:45;;;;;;;459.10;399.63;;;;;;;;;;5051574;28;20033;-81
2021/05/10 06:11:11;;;;;;;464.25;398.10;;;;;;;;;;5018215;28;20029;-82
2021/05/10 06:13:37;;;;;;;462.75;400.98;;;;;;;;;;5028114;28;20381;-78
2021/05/10 06:16:04;;;;;;;461.48;395.10;;;;;;;;;;5033656;28;20685;-80
2021/05/10 06:18:31;;;;;;;458.85;396.88;;;;;;;;;;5033626;28;20079;-84
2021/05/10 06:21:00;;;;;;;455.42;391.70;;;;;;;;;;5037822;28;20033;-84
2021/05/10 06:23:26;;;;;;;452.85;394.25;;;;;;;;;;5042544;28;20036;-83
2021/05/10 06:25:52;;;;;;;457.13;390.67;;;;;;;;;;5035878;28;20033;-84
2021/05/10 06:28:18;;;;;;;453.00;383.92;;;;;;;;;;5035562;28;20100;-79
2021/05/10 06:30:44;;;;;;;453.58;384.85;;;;;;;;;;5036604;28;20032;-81
2021/05/10 06:33:10;;;;;;;457.23;387.75;;;;;;;;;;5036385;28;20032;-82
2021/05/10 06:35:36;;;;;;;453.05;384.88;;;;;;;;;;5036549;28;20032;-80
2021/05/10 06:38:02;;;;;;;458.42;389.50;;;;;;;;;;5036276;28;20028;-80
2021/05/10 06:40:29;;;;;;;451.92;385.23;;;;;;;;;;5036299;28;20032;-80
2021/05/10 06:42:55;;;;;;;457.95;389.10;;;;;;;;;;5036177;28;20025;-77
2021/05/10 06:45:21;;;;;;;452.83;385.15;;;;;;;;;;5035969;28;20052;-78
2021/05/10 06:47:48;;;;;;;455.25;386.58;;;;;;;;;;5035447;28;20065;-77
2021/05/10 06:50:14;;;;;;;456.38;388.27;;;;;;;;;;5035747;28;20139;-80
2021/05/10 06:52:41;;;;;;;458.73;394.23;;;;;;;;;;5036057;28;20032;-81
2021/05/10 06:55:08;;;;;;;457.45;392.75;;;;;;;;;;5052568;28;20442;-82
2021/05/10 06:57:34;;;;;;;456.98;389.83;;;;;;;;;;5048561;28;20028;-81
2021/05/10 07:00:00;;;;;;;459.80;391.17;;;;;;;;;;5022705;28;20033;-82
2021/05/10 07:02:26;;;;;;;457.55;392.73;;;;;;;;;;5029965;28;20031;-78
2021/05/10 07:04:52;;;;;;;453.45;387.60;;;;;;;;;;5055270;28;20052;-82
2021/05/10 07:07:19;;;;;;;454.80;388.20;;;;;;;;;;5036361;28;20021;-80
2021/05/10 07:09:45;;;;;;;458.40;392.23;;;;;;;;;;5037113;28;20033;-82
2021/05/10 07:12:12;;;;;;;455.02;389.67;;;;;;;;;;5037341;28;20025;-80
2021/05/10 07:14:39;;;;;;;458.10;394.27;;;;;;;;;;5035663;28;20025;-81
2021/05/10 07:17:05;;;;;;;459.63;397.73;;;;;;;;;;5035832;28;20853;-79
2021/05/10 07:19:31;;;;;;;457.63;396.67;;;;;;;;;;5054741;28;20029;-83
2021/05/10 07:21:57;;;;;;;455.55;394.67;;;;;;;;;;5036947;28;20611;-81
2021/05/10 07:24:23;;;;;;;457.08;398.23;;;;;;;;;;5051330;28;20048;-82
2021/05/10 07:26:49;;;;;;;456.02;396.65;;;;;;;;;;5023261;28;20075;-82
2021/05/10 07:29:15;;;;;;;457.23;396.73;;;;;;;;;;5029334;28;20059;-80
2021/05/10 07:31:41;;;;;;;459.25;395.75;;;;;;;;;;5032109;28;20127;-81
2021/05/10 07:34:07;;;;;;;465.10;399.98;;;;;;;;;;5048344;28;20104;-82
2021/05/10 07:36:33;;;;;;;457.23;398.70;;;;;;;;;;5024860;28;20024;-77
2021/05/10 07:38:59;;;;;;;459.35;405.30;;;;;;;;;;5026144;28;20393;-80
2021/05/10 07:41:25;;;;;;;459.10;403.00;;;;;;;;;;5024635;28;20082;-79
2021/05/10 07:43:51;;;;;;;460.42;405.90;;;;;;;;;;5037698;28;20030;-82
2021/05/10 07:46:17;;;;;;;459.83;405.10;;;;;;;;;;5042714;28;20037;-84
2021/05/10 07:48:43;;;;;;;459.05;403.75;;;;;;;;;;5038090;28;20158;-79
2021/05/10 07:51:10;;;;;;;458.77;406.55;;;;;;;;;;5045688;28;20127;-79
2021/05/10 07:53:36;;;;;;;459.15;404.77;;;;;;;;;;5050222;28;20025;-81
2021/05/10 07:56:03;;;;;;;462.30;407.98;;;;;;;;;;5033063;28;20092;-82
2021/05/10 07:58:29;;;;;;;460.88;409.23;;;;;;;;;;5033963;28;20116;-81
2021/05/10 08:00:58;;;;;;;466.05;410.98;;;;;;;;;;5035530;28;20106;-76
2021/05/10 08:03:27;;;;;;;458.95;405.45;;;;;;;;;;5035074;28;20106;-78
2021/05/10 08:05:53;;;;;;;458.85;402.80;;;;;;;;;;5052573;28;20039;-82
2021/05/10 08:08:22;;;;;;;460.40;406.85;;;;;;;;;;5029854;28;20033;-80
2021/05/10 08:10:49;;;;;;;459.80;403.00;;;;;;;;;;5053142;28;20033;-79
2021/05/10 08:13:15;;;;;;;460.33;398.92;;;;;;;;;;5050463;28;20043;-80
2021/05/10 08:15:41;;;;;;;459.27;395.90;;;;;;;;;;5031267;28;20487;-78
2021/05/10 08:18:07;;;;;;;455.30;389.20;;;;;;;;;;5053579;28;20023;-78
2021/05/10 08:20:33;;;;;;;457.25;391.15;;;;;;;;;;5038502;28;20043;-78
2021/05/10 08:22:59;;;;;;;460.40;386.60;;;;;;;;;;5035197;28;20736;-79
2021/05/10 08:25:25;;;;;;;457.10;391.33;;;;;;;;;;5035411;28;20086;-80
2021/05/10 08:27:51;;;;;;;461.73;395.50;;;;;;;;;;5034728;28;20035;-80
2021/05/10 08:30:18;;;;;;;458.33;386.88;;;;;;;;;;5029165;28;20036;-82
2021/05/10 08:32:44;;;;;;;456.85;391.75;;;;;;;;;;5035289;28;20124;-80
2021/05/10 08:35:11;;;;;;;454.98;388.80;;;;;;;;;;5019133;28;20018;-81
2021/05/10 08:37:37;;;;;;;459.88;394.25;;;;;;;;;;5021829;28;20115;-79
2021/05/10 08:40:03;;;;;;;461.27;396.17;;;;;;;;;;5035548;28;20415;-82
2021/05/10 08:42:29;;;;;;;464.63;398.92;;;;;;;;;;5035097;28;20170;-76
2021/05/10 08:44:55;;;;;;;460.98;402.20;;;;;;;;;;5050513;28;20048;-81
2021/05/10 08:47:31;;;;;;;461.25;403.27;;;;;;;;;;5035379;28;20025;-79
2021/05/10 08:49:57;;;;;;;459.92;402.95;;;;;;;;;;5052856;28;20048;-81
2021/05/10 08:52:24;;;;;;;464.60;408.48;;;;;;;;;;5029885;28;20017;-82
2021/05/10 08:54:50;;;;;;;461.95;406.02;;;;;;;;;;5035500;28;20461;-83
2021/05/10 08:57:16;;;;;;;460.95;406.50;;;;;;;;;;5050591;28;20025;-78
2021/05/10 08:59:43;;;;;;;461.55;404.83;;;;;;;;;;5033646;28;20098;-83
2021/05/10 09:02:09;;;;;;;462.98;401.55;;;;;;;;;;5052924;28;20036;-77
2021/05/10 09:04:40;;;;;;;459.83;398.35;;;;;;;;;;5052621;28;20032;-82
2021/05/10 09:07:17;;;;;;;459.92;396.13;;;;;;;;;;5034988;28;20492;-82
2021/05/10 09:09:52;;;;;;;457.02;385.55;;;;;;;;;;5022009;28;20386;-80
2021/05/10 09:12:20;;;;;;;455.77;384.13;;;;;;;;;;5015216;28;20052;-79
2021/05/10 09:14:46;;;;;;;456.65;384.20;;;;;;;;;;5015482;28;20041;-84
2021/05/10 09:17:12;;;;;;;454.58;381.38;;;;;;;;;;5015784;28;20056;-82
2021/05/10 09:19:49;;;;;;;456.45;383.83;;;;;;;;;;5035339;28;20469;-80
2021/05/10 09:22:16;;;;;;;459.15;383.90;;;;;;;;;;5035123;28;20032;-84
2021/05/10 09:24:46;;;;;;;455.85;378.92;;;;;;;;;;5052118;28;20057;-82
2021/05/10 09:27:30;;;;;;;453.77;370.35;;;;;;;;;;5045953;28;20360;-81
2021/05/10 09:30:15;;;;;;;459.85;375.95;;;;;;;;;;5026405;28;20029;-84
2021/05/10 09:32:45;;;;;;;460.25;377.48;;;;;;;;;;5034284;28;20538;-82
2021/05/10 09:35:28;;;;;;;460.08;373.77;;;;;;;;;;5051915;28;20067;-80
2021/05/10 09:37:56;;;;;;;469.20;376.10;;;;;;;;;;5034519;28;20102;-82
2021/05/10 09:40:22;;;;;;;475.83;381.73;;;;;;;;;;5052560;28;20024;-82
2021/05/10 09:42:50;;;;;;;469.02;379.85;;;;;;;;;;5025423;28;20021;-83
2021/05/10 09:45:38;;;;;;;465.80;380.63;;;;;;;;;;5042891;28;20713;-83
2021/05/10 09:48:05;;;;;;;468.17;384.40;;;;;;;;;;5038600;28;20488;-80
2021/05/10 09:50:34;;;;;;;467.95;381.35;;;;;;;;;;5029392;28;20042;-82
2021/05/10 09:53:01;;;;;;;474.42;382.45;;;;;;;;;;5049604;28;20041;-84
2021/05/10 09:55:47;;;;;;;493.02;392.98;;;;;;;;;;5050069;28;20025;-82
2021/05/10 09:58:13;;;;;;;488.05;396.73;;;;;;;;;;5035511;28;20017;-82
2021/05/10 10:00:39;;;;;;;504.10;408.90;;;;;;;;;;5031879;28;20469;-79
2021/05/10 10:03:06;;;;;;;478.52;385.23;;;;;;;;;;5046170;28;20025;-81
2021/05/10 10:05:33;;;;;;;480.65;392.45;;;;;;;;;;5038251;28;20112;-83
2021/05/10 10:08:00;;;;;;;477.80;386.35;;;;;;;;;;5046418;28;20036;-82
2021/05/10 10:10:26;;;;;;;477.98;388.92;;;;;;;;;;5037452;28;20040;-82
2021/05/10 10:12:52;;;;;;;475.77;391.90;;;;;;;;;;5037193;28;20416;-80
2021/05/10 10:15:19;;;;;;;483.05;398.00;;;;;;;;;;5053665;28;20079;-82
2021/05/10 10:17:46;;;;;;;484.55;398.00;;;;;;;;;;5037511;28;20029;-82
2021/05/10 10:20:13;;;;;;;478.58;394.73;;;;;;;;;;5054206;28;20086;-80
2021/05/10 10:22:39;;;;;;;479.92;396.83;;;;;;;;;;5053997;28;20025;-80
2021/05/10 10:25:05;;;;;;;480.50;395.23;;;;;;;;;;5037360;28;20037;-83
2021/05/10 10:27:33;;;;;;;481.10;397.50;;;;;;;;;;5054421;28;20635;-80
2021/05/10 10:30:00;;;;;;;483.70;397.40;;;;;;;;;;5035371;28;20491;-80
2021/05/10 10:32:27;;;;;;;488.25;396.67;;;;;;;;;;5054281;28;20017;-81
2021/05/10 10:34:54;;;;;;;493.33;402.08;;;;;;;;;;5031138;28;20499;-83
2021/05/10 10:37:34;;;;;;;490.98;396.17;;;;;;;;;;5049531;28;20025;-82
2021/05/10 10:40:03;;;;;;;483.23;387.88;;;;;;;;;;5030690;28;20025;-80
2021/05/10 10:42:34;;;;;;;489.88;398.30;;;;;;;;;;5054397;28;20465;-80
2021/05/10 10:45:04;;;;;;;494.05;401.00;;;;;;;;;;5036135;28;20494;-81
2021/05/10 10:47:36;;;;;;;501.70;406.33;;;;;;;;;;5036406;28;20537;-78
2021/05/10 10:50:03;;;;;;;498.67;393.95;;;;;;;;;;5054856;28;20041;-82
2021/05/10 10:52:30;;;;;;;501.25;401.15;;;;;;;;;;5054967;28;20071;-80
2021/05/10 10:55:16;;;;;;;499.45;399.08;;;;;;;;;;5033998;28;20452;-78
2021/05/10 10:57:42;;;;;;;508.63;405.52;;;;;;;;;;5037180;28;20499;-80
2021/05/10 11:00:09;;;;;;;523.67;417.25;;;;;;;;;;5052783;28;20541;-81
2021/05/10 11:02:50;;;;;;;510.05;405.55;;;;;;;;;;5037438;28;20037;-81
2021/05/10 11:05:16;;;;;;;598.83;475.92;;;;;;;;;;5048721;28;20033;-81
2021/05/10 11:07:45;;;;;;;553.28;441.08;;;;;;;;;;5035270;28;20028;-80
2021/05/10 11:10:11;;;;;;;612.30;485.95;;;;;;;;;;5030594;28;20025;-79
2021/05/10 11:12:47;;;;;;;526.08;412.80;;;;;;;;;;5034705;28;20040;-82
2021/05/10 11:15:14;;;;;;;642.72;516.78;;;;;;;;;;5033671;28;20117;-80
2021/05/10 11:17:53;;;;;;;536.33;418.17;;;;;;;;;;5035877;28;20029;-80
2021/05/10 11:20:19;;;;;;;589.17;461.95;;;;;;;;;;5046153;28;20036;-80
2021/05/10 11:22:47;;;;;;;664.80;528.08;;;;;;;;;;5036102;28;20414;-80
2021/05/10 11:25:32;;;;;;;634.10;486.35;;;;;;;;;;5053122;28;20111;-79
2021/05/10 11:28:18;;;;;;;601.90;466.90;;;;;;;;;;5050213;28;20033;-80
2021/05/10 11:30:57;;;;;;;516.08;399.27;;;;;;;;;;5046691;28;20100;-80
2021/05/10 11:33:41;;;;;;;522.85;406.30;;;;;;;;;;5052752;28;20036;-80
2021/05/10 11:36:08;;;;;;;560.97;431.00;;;;;;;;;;5052832;28;20024;-79
2021/05/10 11:38:34;;;;;;;567.88;442.55;;;;;;;;;;5051717;28;20500;-79
2021/05/10 11:41:00;;;;;;;555.53;435.15;;;;;;;;;;5029520;28;20029;-78
2021/05/10 11:43:26;;;;;;;561.63;447.10;;;;;;;;;;5035296;28;20028;-79
2021/05/10 11:45:52;;;;;;;606.80;488.23;;;;;;;;;;5035194;28;20761;-79
2021/05/10 11:48:38;;;;;;;525.85;423.55;;;;;;;;;;5036900;28;20060;-78
2021/05/10 11:51:20;;;;;;;535.92;439.70;;;;;;;;;;5016406;28;20436;-81
2021/05/10 11:53:46;;;;;;;586.25;494.02;;;;;;;;;;5041467;28;20029;-81
2021/05/10 11:56:12;;;;;;;523.25;434.80;;;;;;;;;;5048163;28;20056;-79
2021/05/10 11:58:55;;;;;;;477.00;402.67;;;;;;;;;;5051301;28;20033;-79
2021/05/10 12:01:31;;;;;;;484.33;394.20;;;;;;;;;;5032706;28;20021;-81
2021/05/10 12:03:57;;;;;;;525.70;424.85;;;;;;;;;;5051214;28;20037;-79
2021/05/10 12:06:30;;;;;;;500.67;406.88;;;;;;;;;;5033622;28;20025;-78
2021/05/10 12:08:56;;;;;;;493.55;400.55;;;;;;;;;;5035803;28;20504;-78
2021/05/10 12:11:23;;;;;;;497.33;412.58;;;;;;;;;;5035503;28;20020;-79
2021/05/10 12:13:54;;;;;;;527.17;438.48;;;;;;;;;;5039950;28;20033;-78
2021/05/10 12:16:20;;;;;;;563.70;469.10;;;;;;;;;;5031286;28;20021;-80
2021/05/10 12:18:56;;;;;;;559.47;464.77;;;;;;;;;;5032063;28;20024;-79
2021/05/10 12:21:21;;;;;;;526.75;442.08;;;;;;;;;;5034987;28;20021;-79
2021/05/10 12:23:47;;;;;;;502.55;413.85;;;;;;;;;;5035026;28;20086;-79
2021/05/10 12:26:14;;;;;;;517.25;428.08;;;;;;;;;;5053322;28;20032;-81
2021/05/10 12:28:40;;;;;;;568.70;467.80;;;;;;;;;;5034308;28;20366;-81
2021/05/10 12:34:10;;;;;;;582.58;486.55;;;;;;;;;;5051896;28;20528;-78
2021/05/10 12:36:36;;;;;;;562.60;478.50;;;;;;;;;;5051846;28;20472;-78
2021/05/10 12:39:13;;;;;;;594.17;528.55;;;;;;;;;;5051670;28;20151;-81
2021/05/10 12:41:39;;;;;;;627.03;558.75;;;;;;;;;;5051879;28;20546;-80
2021/05/10 12:44:10;;;;;;;640.80;572.17;;;;;;;;;;5052423;28;20033;-78
2021/05/10 12:46:43;;;;;;;640.22;572.05;;;;;;;;;;5035141;28;20037;-81
2021/05/10 12:49:21;;;;;;;635.58;569.35;;;;;;;;;;5052684;28;20421;-82
2021/05/10 12:51:54;;;;;;;570.47;512.05;;;;;;;;;;5034703;28;20430;-80
2021/05/10 12:54:20;;;;;;;550.35;495.13;;;;;;;;;;5052521;28;20013;-80
2021/05/10 12:57:07;;;;;;;556.85;502.17;;;;;;;;;;5034527;28;20543;-80
2021/05/10 12:59:47;;;;;;;566.03;511.42;;;;;;;;;;5050655;28;20023;-78
2021/05/10 13:02:22;;;;;;;563.75;509.00;;;;;;;;;;5034069;28;20481;-77
2021/05/10 13:04:48;;;;;;;561.70;506.77;;;;;;;;;;5052278;28;20075;-81
2021/05/10 13:07:14;;;;;;;551.13;496.63;;;;;;;;;;5033201;28;20032;-80
2021/05/10 13:09:40;;;;;;;535.05;480.73;;;;;;;;;;5043149;28;20749;-80
2021/05/10 13:12:11;;;;;;;528.60;474.05;;;;;;;;;;5051178;28;20102;-80
2021/05/10 13:14:43;;;;;;;527.50;473.02;;;;;;;;;;5048698;28;20079;-82
2021/05/10 13:17:25;;;;;;;542.67;487.88;;;;;;;;;;5048667;28;20420;-80
2021/05/10 13:31:30;;;;;;;511.15;456.27;;;;;;;;;;5053040;28;20071;-87
2021/05/10 13:36:32;;;;;;;514.20;456.52;;;;;;;;;;5056902;28;20082;-81
2021/05/10 13:39:00;;;;;;;503.27;448.13;;;;;;;;;;5037504;28;20016;-79
2021/05/10 13:41:30;;;;;;;506.40;451.05;;;;;;;;;;5038748;28;20369;-82
2021/05/10 13:44:06;;;;;;;524.25;467.02;;;;;;;;;;5037991;28;20091;-80
2021/05/10 13:46:32;;;;;;;504.55;449.30;;;;;;;;;;5056387;28;20032;-84
2021/05/10 13:48:59;;;;;;;512.13;456.50;;;;;;;;;;5030884;28;20384;-79
2021/05/10 13:51:25;;;;;;;517.28;461.92;;;;;;;;;;5038304;28;20052;-85
2021/05/10 13:53:51;;;;;;;514.13;458.83;;;;;;;;;;5052616;28;20053;-84
2021/05/10 13:56:17;;;;;;;520.95;464.83;;;;;;;;;;5038699;28;20693;-86
2021/05/10 13:58:45;;;;;;;545.13;487.58;;;;;;;;;;5055367;28;20090;-83
2021/05/10 14:01:12;;;;;;;555.47;497.42;;;;;;;;;;5034912;28;20055;-86
2021/05/10 14:03:38;;;;;;;569.00;510.23;;;;;;;;;;5054114;28;20021;-87
2021/05/10 14:06:05;;;;;;;585.83;525.97;;;;;;;;;;5038900;28;20024;-82
2021/05/10 14:08:31;;;;;;;574.53;515.42;;;;;;;;;;5039128;28;20573;-89
2021/05/10 14:10:58;;;;;;;586.78;525.92;;;;;;;;;;5037166;28;20029;-85
2021/05/10 14:13:24;;;;;;;594.42;532.92;;;;;;;;;;5032441;28;20020;-86
2021/05/10 14:15:50;;;;;;;656.75;589.72;;;;;;;;;;5042920;28;20144;-88
2021/05/10 14:18:18;;;;;;;677.72;608.33;;;;;;;;;;5051798;28;20060;-82